Time;durP1;ratioP1;P1;durP2;ratioP2;P2;SDS_P1;SDS_P2;PMS_P1;PMS_P2;Temp;Humidity;BMP_temperature;BMP_pressure;BME280_temperature;BME280_humidity;BME280_pressure;Samples;Min_cycle;Max_cycle;Signal;HPM_P1;HPM_P2
2023/12/10 00:00:20;;;;;;;7.35;1.65;;;13.30;74.30;;;;;;2260138;56;21046;-69
2023/12/10 00:02:46;;;;;;;10.50;1.67;;;13.30;74.20;;;;;;2488336;54;20946;-69
2023/12/10 00:05:15;;;;;;;9.85;1.73;;;13.30;74.20;;;;;;2489474;54;21485;-69
2023/12/10 00:07:42;;;;;;;10.32;1.65;;;13.30;74.00;;;;;;2260260;56;20974;-69
2023/12/10 00:10:11;;;;;;;10.88;2.22;;;13.30;74.00;;;;;;2489395;54;20955;-69
2023/12/10 00:12:39;;;;;;;10.52;2.00;;;13.30;73.90;;;;;;2489390;55;20959;-69
2023/12/10 00:15:08;;;;;;;9.82;1.67;;;13.20;73.60;;;;;;2260616;56;21077;-69
2023/12/10 00:17:35;;;;;;;9.40;1.70;;;13.20;73.60;;;;;;2489484;55;21718;-69
2023/12/10 00:20:01;;;;;;;14.63;2.33;;;13.10;73.40;;;;;;2488551;55;21043;-69
2023/12/10 00:22:27;;;;;;;12.02;1.98;;;13.00;73.30;;;;;;2277845;55;21380;-69
2023/12/10 00:24:54;;;;;;;13.00;2.12;;;13.20;73.50;;;;;;2250386;56;21006;-69
2023/12/10 00:27:20;;;;;;;10.65;2.00;;;13.20;73.50;;;;;;2260200;56;21319;-69
2023/12/10 00:29:47;;;;;;;8.90;1.70;;;13.10;73.40;;;;;;2479876;54;20927;-69
2023/12/10 00:32:14;;;;;;;10.48;1.85;;;13.10;73.40;;;;;;2489016;54;21548;-69
2023/12/10 00:34:41;;;;;;;12.52;2.10;;;13.10;73.40;;;;;;2488552;55;20936;-69
2023/12/10 00:37:07;;;;;;;8.98;1.90;;;13.10;73.30;;;;;;2489043;54;20974;-70
2023/12/10 00:39:34;;;;;;;10.80;1.92;;;13.20;73.50;;;;;;2495724;55;21519;-69
2023/12/10 00:42:01;;;;;;;15.75;2.35;;;13.10;73.40;;;;;;2253648;55;21095;-69
2023/12/10 00:44:28;;;;;;;11.98;2.37;;;13.10;73.30;;;;;;2237554;55;21042;-68
2023/12/10 00:46:54;;;;;;;12.68;2.47;;;13.10;73.30;;;;;;2234947;56;21565;-69
2023/12/10 00:49:28;;;;;;;14.45;2.85;;;13.00;73.10;;;;;;2260307;55;20962;-69
2023/12/10 00:51:54;;;;;;;11.80;2.05;;;13.00;73.10;;;;;;2283650;55;21584;-69
2023/12/10 00:54:21;;;;;;;14.48;2.15;;;13.00;73.10;;;;;;2264847;55;21026;-69
2023/12/10 00:56:47;;;;;;;10.40;2.40;;;13.00;73.10;;;;;;2261281;55;20942;-69
2023/12/10 00:59:14;;;;;;;8.70;1.75;;;13.00;73.20;;;;;;2488939;54;21796;-69
2023/12/10 01:01:41;;;;;;;14.35;2.30;;;13.00;73.30;;;;;;2260244;56;20982;-69
2023/12/10 01:04:07;;;;;;;16.05;2.97;;;13.00;73.20;;;;;;2259802;56;21336;-69
2023/12/10 01:06:35;;;;;;;11.65;1.95;;;13.00;73.20;;;;;;2489327;54;20994;-69
2023/12/10 01:09:01;;;;;;;14.05;2.50;;;13.00;73.10;;;;;;2485223;54;20946;-69
2023/12/10 01:11:28;;;;;;;13.77;2.22;;;12.90;73.20;;;;;;2260021;56;20962;-69
2023/12/10 01:13:54;;;;;;;10.70;1.98;;;13.00;73.30;;;;;;2487854;54;21057;-69
2023/12/10 01:16:21;;;;;;;12.15;2.22;;;12.90;73.40;;;;;;2469574;54;21091;-69
2023/12/10 01:18:47;;;;;;;13.02;2.30;;;13.00;73.40;;;;;;2495507;54;20931;-69
2023/12/10 01:21:14;;;;;;;12.52;2.40;;;12.90;73.40;;;;;;2489153;55;21577;-69
2023/12/10 01:23:40;;;;;;;11.88;2.40;;;12.90;73.40;;;;;;2488586;55;21460;-69
2023/12/10 01:26:07;;;;;;;15.30;2.22;;;12.90;73.30;;;;;;2488699;55;21657;-69
2023/12/10 01:28:33;;;;;;;9.90;1.65;;;12.90;73.30;;;;;;2265848;55;21083;-69
2023/12/10 01:31:00;;;;;;;17.17;1.92;;;12.90;72.70;;;;;;2488717;55;20979;-69
2023/12/10 01:33:26;;;;;;;9.00;1.80;;;12.90;73.30;;;;;;2488530;55;21366;-70
2023/12/10 01:35:53;;;;;;;12.68;1.92;;;12.90;73.40;;;;;;2487811;55;21274;-70
2023/12/10 01:38:19;;;;;;;9.95;1.95;;;12.90;73.40;;;;;;2259541;55;21031;-71
2023/12/10 01:40:46;;;;;;;11.85;1.87;;;12.90;73.30;;;;;;2266374;55;20962;-71
2023/12/10 01:43:12;;;;;;;5.55;1.23;;;12.90;73.20;;;;;;2495440;55;20960;-71
2023/12/10 01:45:39;;;;;;;7.40;1.40;;;12.90;73.20;;;;;;2260571;55;20967;-71
2023/12/10 01:48:05;;;;;;;8.65;1.70;;;12.80;73.00;;;;;;2240240;56;21041;-71
2023/12/10 01:50:33;;;;;;;10.63;1.83;;;12.80;72.90;;;;;;2234748;56;20959;-70
2023/12/10 01:52:59;;;;;;;15.70;2.50;;;12.80;72.90;;;;;;2260326;55;20975;-70
2023/12/10 01:55:26;;;;;;;10.85;1.87;;;12.80;73.00;;;;;;2481317;55;20976;-70
2023/12/10 01:57:52;;;;;;;11.10;2.35;;;12.80;73.00;;;;;;2250781;56;21019;-70
2023/12/10 02:00:19;;;;;;;11.90;2.25;;;12.70;72.80;;;;;;2489396;55;21058;-71
2023/12/10 02:02:45;;;;;;;14.52;2.22;;;12.70;72.90;;;;;;2260421;56;20970;-70
2023/12/10 02:05:12;;;;;;;11.85;1.95;;;12.70;73.00;;;;;;2489187;55;20944;-71
2023/12/10 02:07:41;;;;;;;12.48;2.30;;;12.60;72.80;;;;;;2489296;55;21435;-70
2023/12/10 02:10:09;;;;;;;11.68;2.00;;;12.60;72.80;;;;;;2496658;55;21085;-70
2023/12/10 02:12:36;;;;;;;10.45;1.65;;;12.60;72.90;;;;;;2269456;56;20966;-69
2023/12/10 02:16:03;;;;;;;9.45;2.53;;;12.60;72.90;;;;;;2488930;55;21002;-70
2023/12/10 02:18:30;;;;;;;12.60;1.85;;;12.60;71.90;;;;;;2268052;55;20939;-70
2023/12/10 02:20:56;;;;;;;13.73;2.12;;;12.50;72.90;;;;;;2260040;55;21378;-69
2023/12/10 02:23:50;;;;;;;6.93;1.67;;;12.50;72.90;;;;;;2265796;56;21050;-70
2023/12/10 02:26:16;;;;;;;9.75;1.90;;;12.50;72.60;;;;;;2260360;55;20974;-69
2023/12/10 02:28:44;;;;;;;10.90;1.80;;;12.50;73.10;;;;;;2495440;54;21471;-69
2023/12/10 02:31:10;;;;;;;11.63;1.85;;;12.40;73.00;;;;;;2488083;55;20970;-70
2023/12/10 02:33:36;;;;;;;9.25;1.75;;;12.40;73.00;;;;;;2495298;55;20955;-70
2023/12/10 02:36:03;;;;;;;9.25;1.70;;;12.40;73.10;;;;;;2275927;55;21422;-70
2023/12/10 02:38:30;;;;;;;11.63;2.30;;;12.40;73.10;;;;;;2488584;54;21729;-69
2023/12/10 02:40:56;;;;;;;6.62;1.48;;;12.40;73.10;;;;;;2263135;55;21095;-69
2023/12/10 02:43:23;;;;;;;11.35;1.60;;;12.40;73.10;;;;;;2489008;55;21007;-69
2023/12/10 02:45:53;;;;;;;12.07;1.65;;;12.40;73.10;;;;;;2487674;55;20966;-70
2023/12/10 02:48:21;;;;;;;10.05;1.98;;;12.40;73.00;;;;;;2259878;55;21054;-69
2023/12/10 02:50:49;;;;;;;9.23;1.62;;;12.30;72.90;;;;;;2256715;55;21051;-69
2023/12/10 02:53:15;;;;;;;8.88;1.70;;;12.40;73.10;;;;;;2488103;55;20970;-69
2023/12/10 02:55:44;;;;;;;6.32;1.42;;;12.30;73.10;;;;;;2489019;55;20963;-69
2023/12/10 02:58:11;;;;;;;7.25;1.45;;;12.40;73.20;;;;;;2494832;55;21026;-69
2023/12/10 03:00:37;;;;;;;8.05;1.58;;;12.30;73.10;;;;;;2260405;55;20938;-69
2023/12/10 03:03:03;;;;;;;9.55;1.80;;;12.30;73.10;;;;;;2264738;56;20979;-70
2023/12/10 03:05:30;;;;;;;11.95;1.98;;;12.30;73.00;;;;;;2489114;55;20958;-69
2023/12/10 03:07:59;;;;;;;12.23;1.60;;;12.30;72.90;;;;;;2259230;56;20947;-70
2023/12/10 03:10:26;;;;;;;8.27;1.42;;;12.30;72.90;;;;;;2489322;54;21117;-69
2023/12/10 03:12:55;;;;;;;8.15;1.40;;;12.30;72.90;;;;;;2488983;54;20970;-70
2023/12/10 03:15:21;;;;;;;7.68;1.62;;;12.30;72.90;;;;;;2489008;55;20982;-69
2023/12/10 03:17:48;;;;;;;8.88;1.62;;;12.20;72.70;;;;;;2259635;55;21838;-69
2023/12/10 03:20:14;;;;;;;5.80;1.30;;;12.30;72.80;;;;;;2259622;56;20992;-68
2023/12/10 03:22:40;;;;;;;11.25;1.55;;;12.20;72.70;;;;;;2489068;55;20936;-69
2023/12/10 03:25:09;;;;;;;10.05;1.80;;;12.20;72.60;;;;;;2260287;56;20971;-69
2023/12/10 03:27:36;;;;;;;6.62;1.25;;;12.20;72.60;;;;;;2501378;54;20970;-69
2023/12/10 03:30:02;;;;;;;8.15;1.87;;;12.20;72.60;;;;;;2290995;55;21425;-69
2023/12/10 03:32:29;;;;;;;8.35;1.60;;;12.20;72.60;;;;;;2496115;54;21004;-69
2023/12/10 03:34:55;;;;;;;10.35;2.05;;;12.30;72.70;;;;;;2533774;54;21089;-69
2023/12/10 03:37:21;;;;;;;7.12;1.65;;;12.20;72.60;;;;;;2299643;56;21553;-69
2023/12/10 03:39:48;;;;;;;10.20;1.98;;;12.20;72.60;;;;;;2299545;55;21248;-69
2023/12/10 03:42:15;;;;;;;7.95;1.62;;;12.10;72.60;;;;;;2299629;56;21921;-69
2023/12/10 03:44:41;;;;;;;9.55;1.65;;;12.10;72.60;;;;;;2299913;56;20971;-68
2023/12/10 03:47:07;;;;;;;10.90;2.03;;;12.10;72.50;;;;;;2298097;56;20978;-68
2023/12/10 03:49:34;;;;;;;9.95;1.85;;;12.10;72.60;;;;;;2288109;55;21075;-69
2023/12/10 03:52:00;;;;;;;8.38;1.67;;;12.10;72.50;;;;;;2299871;55;20988;-69
2023/12/10 03:54:28;;;;;;;11.98;1.90;;;12.10;72.50;;;;;;2265827;55;21062;-69
2023/12/10 03:56:56;;;;;;;6.00;1.23;;;12.00;72.50;;;;;;2299903;56;21532;-69
2023/12/10 03:59:22;;;;;;;11.57;2.05;;;12.00;72.50;;;;;;2504717;54;21441;-69
2023/12/10 04:01:49;;;;;;;9.65;1.65;;;12.00;72.50;;;;;;2286352;55;20935;-68
2023/12/10 04:04:15;;;;;;;12.25;1.73;;;12.00;72.40;;;;;;2299233;55;21023;-69
2023/12/10 04:06:42;;;;;;;6.47;1.58;;;12.00;72.40;;;;;;2299649;55;21412;-69
2023/12/10 04:09:09;;;;;;;6.95;1.20;;;12.00;72.60;;;;;;2536296;54;21409;-69
2023/12/10 04:11:36;;;;;;;5.22;1.27;;;12.00;72.60;;;;;;2537034;54;20964;-68
2023/12/10 04:14:06;;;;;;;7.78;1.50;;;12.00;72.60;;;;;;2536433;54;20956;-68
2023/12/10 04:16:32;;;;;;;6.55;1.00;;;11.90;72.50;;;;;;2287041;55;21033;-69
2023/12/10 04:18:59;;;;;;;6.40;1.35;;;11.90;72.50;;;;;;2290987;56;21009;-69
2023/12/10 04:21:26;;;;;;;5.87;1.20;;;12.00;72.70;;;;;;2500940;54;20966;-68
2023/12/10 04:23:52;;;;;;;8.00;1.30;;;11.90;72.60;;;;;;2289777;56;21021;-68
2023/12/10 04:26:18;;;;;;;11.05;1.45;;;11.90;72.60;;;;;;2295437;56;21005;-69
2023/12/10 04:28:46;;;;;;;9.15;1.90;;;11.90;72.60;;;;;;2522642;54;21623;-68
2023/12/10 04:31:12;;;;;;;7.43;1.20;;;11.90;72.50;;;;;;2299546;56;21031;-69
2023/12/10 04:33:38;;;;;;;7.00;1.40;;;11.90;72.60;;;;;;2497535;54;21040;-69
2023/12/10 04:36:08;;;;;;;7.45;1.30;;;11.90;72.60;;;;;;2535154;54;20935;-69
2023/12/10 04:38:34;;;;;;;9.55;1.62;;;11.90;72.60;;;;;;2536100;54;20947;-69
2023/12/10 04:41:00;;;;;;;7.18;1.33;;;11.90;72.60;;;;;;2274667;56;21946;-69
2023/12/10 04:43:26;;;;;;;8.35;1.67;;;11.90;72.60;;;;;;2282508;55;20989;-69
2023/12/10 04:45:53;;;;;;;5.07;1.12;;;11.90;72.50;;;;;;2528568;54;21492;-69
2023/12/10 04:48:20;;;;;;;7.28;1.35;;;11.90;72.60;;;;;;2536241;54;20940;-69
2023/12/10 04:50:47;;;;;;;6.40;1.23;;;11.80;72.40;;;;;;2299784;55;21267;-69
2023/12/10 04:53:13;;;;;;;7.60;1.20;;;11.90;72.60;;;;;;2299954;55;20979;-69
2023/12/10 04:55:39;;;;;;;9.55;1.17;;;11.80;72.60;;;;;;2536623;54;20963;-69
2023/12/10 04:58:05;;;;;;;8.50;1.30;;;11.80;72.60;;;;;;2296091;56;20933;-69
2023/12/10 05:00:33;;;;;;;6.95;1.48;;;11.80;72.50;;;;;;2268989;55;21082;-68
2023/12/10 05:02:59;;;;;;;6.53;1.20;;;11.90;72.50;;;;;;2294637;55;21001;-68
2023/12/10 05:05:28;;;;;;;7.05;1.52;;;11.80;72.40;;;;;;2524139;54;21015;-69
2023/12/10 05:07:54;;;;;;;6.90;1.40;;;11.80;72.40;;;;;;2536358;54;20960;-69
2023/12/10 05:10:23;;;;;;;4.93;1.23;;;11.80;72.40;;;;;;2299540;56;20959;-68
2023/12/10 05:12:49;;;;;;;8.63;1.80;;;11.80;72.50;;;;;;2536243;54;20928;-69
2023/12/10 05:15:16;;;;;;;6.80;1.25;;;11.80;72.40;;;;;;2536709;54;21004;-69
2023/12/10 05:17:42;;;;;;;6.57;1.50;;;11.80;72.40;;;;;;2299621;56;21299;-68
2023/12/10 05:20:09;;;;;;;6.75;1.50;;;11.80;72.30;;;;;;2299876;56;20980;-69
2023/12/10 05:22:35;;;;;;;10.27;1.87;;;11.80;72.30;;;;;;2289276;55;20956;-68
2023/12/10 05:25:03;;;;;;;6.10;1.40;;;11.80;72.30;;;;;;2289469;55;21620;-69
2023/12/10 05:27:32;;;;;;;6.68;1.12;;;11.70;72.20;;;;;;2536778;54;20967;-69
2023/12/10 05:29:59;;;;;;;6.37;1.30;;;11.70;72.30;;;;;;2535853;54;20951;-69
2023/12/10 05:32:27;;;;;;;6.07;1.37;;;11.70;72.40;;;;;;2299469;55;22150;-68
2023/12/10 05:34:54;;;;;;;6.65;1.20;;;11.70;72.40;;;;;;2298608;55;21040;-69
2023/12/10 05:37:20;;;;;;;7.87;1.50;;;11.70;72.40;;;;;;2526471;54;20958;-69
2023/12/10 05:39:47;;;;;;;7.75;1.02;;;11.70;72.30;;;;;;2527829;54;20948;-69
2023/12/10 05:42:13;;;;;;;5.05;1.10;;;11.70;72.30;;;;;;2260020;56;21018;-69
2023/12/10 05:44:42;;;;;;;4.97;1.27;;;11.80;72.40;;;;;;2265439;56;21022;-69
2023/12/10 05:47:09;;;;;;;8.18;1.30;;;11.70;72.10;;;;;;2488022;55;21396;-70
2023/12/10 05:49:35;;;;;;;4.95;1.20;;;11.70;72.10;;;;;;2259790;56;20965;-69
2023/12/10 05:52:03;;;;;;;8.88;1.85;;;11.80;72.20;;;;;;2494742;55;20940;-69
2023/12/10 05:54:31;;;;;;;5.78;1.10;;;11.70;72.20;;;;;;2488527;55;21089;-68
2023/12/10 05:56:58;;;;;;;8.35;1.48;;;11.70;72.20;;;;;;2260624;55;20963;-69
2023/12/10 05:59:24;;;;;;;7.03;1.27;;;11.70;72.20;;;;;;2268043;56;20970;-69
2023/12/10 06:01:50;;;;;;;10.82;1.85;;;11.60;72.10;;;;;;2245230;55;20975;-68
2023/12/10 06:04:17;;;;;;;7.75;1.30;;;11.70;72.20;;;;;;2261064;55;21070;-68
2023/12/10 06:06:43;;;;;;;7.50;1.52;;;11.70;72.20;;;;;;2498447;54;21100;-68
2023/12/10 06:09:09;;;;;;;6.80;1.17;;;11.70;72.30;;;;;;2252333;56;21046;-69
2023/12/10 06:11:37;;;;;;;7.62;1.30;;;11.60;72.20;;;;;;2260293;56;21765;-69
2023/12/10 06:14:03;;;;;;;8.95;1.45;;;11.60;72.20;;;;;;2489280;54;20958;-69
2023/12/10 06:16:29;;;;;;;10.63;1.73;;;11.60;72.20;;;;;;2259825;56;20959;-68
2023/12/10 06:18:55;;;;;;;11.07;1.67;;;11.60;72.40;;;;;;2259580;56;20962;-69
2023/12/10 06:21:22;;;;;;;9.00;1.45;;;11.60;72.40;;;;;;2488709;54;21667;-69
2023/12/10 06:23:48;;;;;;;9.90;1.55;;;11.60;72.40;;;;;;2489155;55;20983;-69
2023/12/10 06:26:15;;;;;;;9.30;1.60;;;11.70;72.60;;;;;;2489207;55;20931;-68
2023/12/10 06:28:42;;;;;;;7.65;1.30;;;11.60;72.50;;;;;;2487826;54;21024;-68
2023/12/10 06:31:09;;;;;;;11.27;1.75;;;11.60;72.50;;;;;;2488737;54;21695;-69
2023/12/10 06:33:35;;;;;;;9.60;1.58;;;11.60;72.40;;;;;;2258961;56;22250;-69
2023/12/10 06:36:02;;;;;;;8.13;1.40;;;11.60;72.40;;;;;;2259675;56;21033;-68
2023/12/10 06:38:28;;;;;;;8.38;1.52;;;11.70;72.40;;;;;;2488565;54;21002;-69
2023/12/10 06:40:55;;;;;;;6.47;1.30;;;11.70;72.40;;;;;;2488346;54;20954;-68
2023/12/10 06:43:21;;;;;;;5.40;1.10;;;11.70;72.40;;;;;;2488661;55;21503;-68
2023/12/10 06:45:48;;;;;;;8.05;1.20;;;11.70;72.40;;;;;;2488741;54;21638;-68
2023/12/10 06:48:14;;;;;;;5.70;1.15;;;11.70;72.30;;;;;;2488641;54;21059;-69
2023/12/10 06:50:41;;;;;;;6.15;1.10;;;11.70;72.30;;;;;;2250427;55;21476;-69
2023/12/10 06:53:07;;;;;;;5.07;1.20;;;11.70;72.30;;;;;;2258411;56;20990;-68
2023/12/10 06:55:34;;;;;;;8.90;1.65;;;11.70;72.20;;;;;;2260439;56;21018;-68
2023/12/10 06:58:00;;;;;;;3.75;0.98;;;11.70;72.30;;;;;;2253091;56;20982;-69
2023/12/10 07:00:27;;;;;;;7.78;1.42;;;11.70;72.30;;;;;;2256821;56;21015;-68
2023/12/10 07:02:54;;;;;;;7.87;1.42;;;11.70;72.30;;;;;;2260080;56;20939;-69
2023/12/10 07:05:20;;;;;;;9.10;1.35;;;11.70;72.20;;;;;;2269416;55;20940;-68
2023/12/10 07:07:46;;;;;;;7.10;1.25;;;11.70;72.20;;;;;;2272385;55;21746;-69
2023/12/10 07:10:15;;;;;;;6.22;1.30;;;11.60;72.10;;;;;;2259858;55;20968;-69
2023/12/10 07:12:41;;;;;;;8.02;1.50;;;11.60;72.20;;;;;;2259947;55;20995;-69
2023/12/10 07:15:08;;;;;;;10.07;1.73;;;11.60;72.10;;;;;;2488000;55;21023;-69
2023/12/10 07:17:36;;;;;;;5.95;1.15;;;11.60;72.10;;;;;;2259748;56;21377;-69
2023/12/10 07:20:03;;;;;;;7.47;1.83;;;11.60;72.10;;;;;;2259803;55;20952;-68
2023/12/10 07:22:30;;;;;;;10.50;1.80;;;11.70;72.20;;;;;;2488489;55;20950;-68
2023/12/10 07:24:58;;;;;;;8.23;1.73;;;11.60;72.10;;;;;;2488364;55;21326;-68
2023/12/10 07:27:24;;;;;;;7.37;1.30;;;11.60;72.10;;;;;;2487872;54;20962;-68
2023/12/10 07:29:51;;;;;;;6.10;1.30;;;11.60;72.10;;;;;;2259856;56;21015;-68
2023/12/10 07:32:17;;;;;;;6.00;1.20;;;11.60;72.10;;;;;;2260496;56;20954;-68
2023/12/10 07:34:44;;;;;;;8.30;1.30;;;11.60;72.30;;;;;;2260109;56;21790;-68
2023/12/10 07:37:13;;;;;;;10.38;1.27;;;11.60;72.20;;;;;;2260066;55;21022;-68
2023/12/10 07:39:39;;;;;;;7.37;1.83;;;11.60;72.10;;;;;;2458550;54;21605;-67
2023/12/10 07:42:06;;;;;;;9.15;1.33;;;11.60;72.30;;;;;;2256570;56;21483;-68
2023/12/10 07:44:33;;;;;;;7.70;1.37;;;11.60;72.30;;;;;;2464934;55;20954;-69
2023/12/10 07:46:59;;;;;;;7.80;1.65;;;11.60;72.40;;;;;;2488438;55;20970;-69
2023/12/10 07:49:28;;;;;;;5.85;1.90;;;11.60;72.30;;;;;;2260058;55;21417;-69
2023/12/10 07:51:55;;;;;;;9.65;1.95;;;11.60;72.40;;;;;;2285891;56;21015;-69
2023/12/10 07:54:22;;;;;;;7.05;1.85;;;11.70;72.40;;;;;;2286115;55;20962;-69
2023/12/10 07:56:48;;;;;;;6.90;1.40;;;11.60;72.40;;;;;;2285531;55;21075;-68
2023/12/10 07:59:15;;;;;;;9.20;1.50;;;11.60;72.30;;;;;;2286108;56;21067;-69
2023/12/10 08:01:42;;;;;;;7.55;1.60;;;11.60;72.30;;;;;;2285144;56;21088;-69
2023/12/10 08:04:08;;;;;;;9.63;1.55;;;11.60;72.30;;;;;;2286643;56;20928;-69
2023/12/10 08:06:34;;;;;;;7.20;1.30;;;11.60;72.40;;;;;;2284533;55;20972;-68
2023/12/10 08:09:04;;;;;;;8.35;1.80;;;11.60;72.40;;;;;;2519857;54;21023;-68
2023/12/10 08:11:34;;;;;;;9.15;1.62;;;11.60;72.40;;;;;;2285843;56;21027;-68
2023/12/10 08:14:02;;;;;;;6.80;1.90;;;11.60;72.40;;;;;;2286048;56;20976;-68
2023/12/10 08:16:28;;;;;;;11.10;2.50;;;11.60;72.50;;;;;;2285834;56;20952;-68
2023/12/10 08:19:00;;;;;;;9.65;2.53;;;11.60;72.60;;;;;;2265342;56;21523;-69
2023/12/10 08:21:27;;;;;;;10.48;2.67;;;11.70;72.70;;;;;;2494847;55;21007;-67
2023/12/10 08:23:54;;;;;;;9.15;1.90;;;11.70;72.70;;;;;;2265382;56;21338;-67
2023/12/10 08:26:21;;;;;;;6.60;2.37;;;11.70;72.80;;;;;;2260301;55;21473;-68
2023/12/10 08:28:47;;;;;;;8.82;1.87;;;11.70;72.80;;;;;;2487612;55;21495;-69
2023/12/10 08:31:13;;;;;;;12.98;1.95;;;11.70;72.80;;;;;;2260538;55;20942;-69
2023/12/10 08:33:44;;;;;;;8.02;1.70;;;11.70;72.80;;;;;;2488477;55;21046;-69
2023/12/10 08:36:10;;;;;;;8.65;2.12;;;11.70;72.80;;;;;;2265416;56;20970;-69
2023/12/10 08:38:37;;;;;;;6.62;1.70;;;11.70;72.90;;;;;;2483067;55;20995;-68
2023/12/10 08:41:04;;;;;;;7.35;1.50;;;11.80;73.00;;;;;;2234885;56;21836;-68
2023/12/10 08:43:30;;;;;;;6.68;1.52;;;11.80;73.10;;;;;;2494408;55;20978;-68
2023/12/10 08:45:57;;;;;;;9.73;1.50;;;11.80;73.10;;;;;;2260200;55;21006;-69
2023/12/10 08:48:23;;;;;;;9.40;1.73;;;11.80;73.10;;;;;;2495341;54;21479;-68
2023/12/10 08:50:50;;;;;;;8.70;1.62;;;11.80;73.10;;;;;;2488817;55;20983;-69
2023/12/10 08:53:16;;;;;;;7.93;1.67;;;11.80;73.10;;;;;;2507924;54;21553;-68
2023/12/10 08:55:43;;;;;;;7.45;1.85;;;11.90;73.20;;;;;;2264356;55;21010;-69
2023/12/10 08:58:09;;;;;;;10.50;2.35;;;11.80;73.10;;;;;;2262978;55;21479;-69
2023/12/10 09:00:35;;;;;;;11.90;2.00;;;11.90;73.30;;;;;;2244647;56;21542;-69
2023/12/10 09:03:02;;;;;;;10.05;1.85;;;11.90;73.20;;;;;;2243214;56;21025;-68
2023/12/10 09:05:28;;;;;;;9.82;1.65;;;11.90;73.20;;;;;;2257518;56;21055;-69
2023/12/10 09:07:57;;;;;;;10.23;1.67;;;11.90;73.10;;;;;;2479343;55;20950;-69
2023/12/10 09:10:24;;;;;;;7.97;1.60;;;12.00;73.30;;;;;;2260494;56;20995;-69
2023/12/10 09:12:50;;;;;;;8.20;1.83;;;12.00;73.30;;;;;;2260203;55;21048;-68
2023/12/10 09:15:16;;;;;;;11.73;2.10;;;12.00;73.40;;;;;;2492717;54;20994;-68
2023/12/10 09:17:43;;;;;;;12.63;2.70;;;12.10;73.50;;;;;;2529701;54;21022;-69
2023/12/10 09:20:09;;;;;;;9.75;2.25;;;12.00;73.40;;;;;;2289085;55;21078;-69
2023/12/10 09:22:39;;;;;;;11.02;2.70;;;12.10;73.40;;;;;;2299161;55;20951;-69
2023/12/10 09:25:05;;;;;;;10.93;2.35;;;12.10;73.30;;;;;;2535780;54;21331;-70
2023/12/10 09:27:35;;;;;;;11.77;2.47;;;12.10;73.40;;;;;;2300083;56;21023;-69
2023/12/10 09:30:02;;;;;;;12.48;2.03;;;12.20;73.40;;;;;;2257515;56;20987;-68
2023/12/10 09:32:29;;;;;;;10.63;2.55;;;12.20;73.50;;;;;;2467275;55;21078;-69
2023/12/10 09:34:55;;;;;;;13.77;2.50;;;12.20;73.70;;;;;;2487375;55;21750;-68
2023/12/10 09:37:22;;;;;;;5.15;1.52;;;12.20;73.60;;;;;;2251766;56;21051;-69
2023/12/10 09:39:48;;;;;;;9.13;2.28;;;12.30;73.70;;;;;;2278118;56;21839;-69
2023/12/10 09:42:14;;;;;;;6.75;1.87;;;12.30;73.80;;;;;;2524565;54;21494;-68
2023/12/10 09:44:42;;;;;;;11.73;2.30;;;12.30;73.80;;;;;;2289550;56;21288;-69
2023/12/10 09:47:09;;;;;;;11.45;2.40;;;12.30;73.70;;;;;;2263759;56;20963;-68
2023/12/10 09:49:37;;;;;;;10.50;2.15;;;12.40;73.80;;;;;;2275304;55;20918;-68
2023/12/10 09:52:08;;;;;;;9.55;1.80;;;12.40;73.90;;;;;;2261783;56;20938;-69
2023/12/10 09:54:41;;;;;;;8.63;2.20;;;12.50;73.90;;;;;;2290612;56;21002;-68
2023/12/10 09:57:08;;;;;;;9.20;1.87;;;12.50;74.00;;;;;;2270206;56;21051;-69
2023/12/10 09:59:35;;;;;;;11.88;2.55;;;12.50;74.00;;;;;;2466931;55;21017;-69
2023/12/10 10:02:04;;;;;;;8.60;1.70;;;12.60;74.00;;;;;;2517125;54;21031;-69
2023/12/10 10:04:30;;;;;;;8.32;1.80;;;12.60;73.50;;;;;;2266072;55;20954;-69
2023/12/10 10:06:57;;;;;;;6.80;1.83;;;12.60;73.60;;;;;;2273683;55;21015;-69
2023/12/10 10:09:25;;;;;;;9.02;1.90;;;12.60;73.60;;;;;;2497024;55;21533;-69
2023/12/10 10:11:54;;;;;;;8.60;1.65;;;12.70;73.80;;;;;;2254788;56;21042;-69
2023/12/10 10:14:21;;;;;;;5.60;1.33;;;12.70;73.60;;;;;;2489213;55;21223;-69
2023/12/10 10:16:48;;;;;;;10.65;1.58;;;12.70;73.50;;;;;;2264871;55;20980;-69
2023/12/10 10:19:15;;;;;;;7.65;1.60;;;12.70;73.50;;;;;;2259796;55;21010;-68
2023/12/10 10:21:42;;;;;;;7.40;1.92;;;12.80;73.50;;;;;;2487159;55;21038;-69
2023/12/10 10:24:08;;;;;;;5.37;1.37;;;12.80;73.40;;;;;;2268036;55;20980;-69
2023/12/10 10:26:35;;;;;;;9.30;1.80;;;12.80;73.40;;;;;;2507540;54;20966;-69
2023/12/10 10:29:06;;;;;;;7.07;1.60;;;12.80;73.20;;;;;;2486705;54;20986;-69
2023/12/10 10:31:35;;;;;;;5.82;1.90;;;12.90;73.10;;;;;;2488824;54;21151;-68
2023/12/10 10:34:02;;;;;;;7.70;2.25;;;12.90;73.20;;;;;;2480176;54;21429;-68
2023/12/10 10:36:29;;;;;;;5.82;1.70;;;12.90;73.30;;;;;;2486703;54;21018;-69
2023/12/10 10:38:56;;;;;;;9.38;2.10;;;12.90;73.10;;;;;;2259534;56;20963;-67
2023/12/10 10:41:22;;;;;;;7.18;1.90;;;12.90;73.20;;;;;;2260901;56;20988;-69
2023/12/10 10:43:49;;;;;;;7.22;1.70;;;13.00;73.30;;;;;;2260434;56;20946;-68
2023/12/10 10:46:19;;;;;;;6.57;1.70;;;12.90;73.20;;;;;;2488588;55;21101;-68
2023/12/10 10:48:51;;;;;;;6.47;1.35;;;13.00;73.20;;;;;;2265287;56;20947;-69
2023/12/10 10:51:28;;;;;;;8.40;1.58;;;13.00;73.30;;;;;;2488835;55;21014;-69
2023/12/10 10:53:54;;;;;;;10.20;1.90;;;13.00;73.00;;;;;;2486505;54;20962;-68
2023/12/10 10:56:20;;;;;;;7.10;1.87;;;13.00;73.40;;;;;;2489029;55;20943;-68
2023/12/10 10:58:47;;;;;;;9.20;1.90;;;13.00;73.30;;;;;;2488205;54;22102;-68
2023/12/10 11:01:35;;;;;;;8.77;1.65;;;13.00;73.20;;;;;;2487992;55;21831;-68
2023/12/10 11:04:01;;;;;;;6.60;1.48;;;13.00;72.50;;;;;;2259429;56;21255;-68
2023/12/10 11:06:28;;;;;;;11.10;2.35;;;13.10;73.30;;;;;;2489578;55;21126;-69
2023/12/10 11:08:56;;;;;;;7.40;1.45;;;13.10;73.50;;;;;;2494604;55;21211;-68
2023/12/10 11:11:27;;;;;;;7.75;2.12;;;13.10;73.50;;;;;;2511412;54;21027;-68
2023/12/10 11:13:55;;;;;;;16.17;2.95;;;13.10;73.30;;;;;;2298617;56;20967;-69
2023/12/10 11:16:22;;;;;;;8.88;2.05;;;13.10;73.40;;;;;;2299713;56;20952;-68
2023/12/10 11:18:57;;;;;;;10.32;1.80;;;13.20;73.50;;;;;;2535509;54;20943;-68
2023/12/10 11:21:24;;;;;;;5.25;1.37;;;13.20;73.10;;;;;;2299335;56;21507;-69
2023/12/10 11:23:50;;;;;;;5.15;1.65;;;13.20;73.40;;;;;;2299114;55;20948;-68
2023/12/10 11:26:17;;;;;;;5.70;1.48;;;13.20;73.50;;;;;;2536261;54;20941;-69
2023/12/10 11:28:43;;;;;;;5.05;1.20;;;13.20;73.50;;;;;;2299987;55;20972;-69
2023/12/10 11:31:09;;;;;;;7.03;1.62;;;13.20;73.40;;;;;;2535873;54;20939;-69
2023/12/10 11:33:40;;;;;;;7.30;1.73;;;13.30;73.50;;;;;;2299570;55;21034;-68
2023/12/10 11:36:07;;;;;;;5.35;1.02;;;13.30;73.60;;;;;;2536124;54;20979;-69
2023/12/10 11:38:33;;;;;;;7.57;1.40;;;13.30;73.60;;;;;;2299736;56;21903;-69
2023/12/10 11:41:00;;;;;;;8.48;1.35;;;13.40;73.70;;;;;;2506225;54;21006;-69
2023/12/10 11:43:30;;;;;;;6.90;1.35;;;13.40;73.70;;;;;;2279142;55;21031;-69
2023/12/10 11:45:56;;;;;;;4.87;1.40;;;13.40;73.70;;;;;;2290891;56;21451;-68
2023/12/10 11:48:23;;;;;;;12.70;2.83;;;13.40;74.40;;;;;;2533261;54;20960;-69
2023/12/10 11:50:51;;;;;;;10.38;2.30;;;13.40;73.70;;;;;;2535266;54;20948;-68
2023/12/10 11:53:18;;;;;;;11.25;1.92;;;13.40;73.70;;;;;;2299027;55;21985;-68
2023/12/10 11:55:44;;;;;;;8.70;2.22;;;13.50;73.80;;;;;;2292280;56;21681;-69
2023/12/10 11:58:11;;;;;;;11.23;1.90;;;13.50;73.80;;;;;;2530963;54;20943;-69
2023/12/10 12:00:37;;;;;;;9.90;1.85;;;13.50;73.70;;;;;;2536650;54;20947;-68
2023/12/10 12:03:06;;;;;;;8.48;1.90;;;13.50;73.80;;;;;;2299988;55;21045;-70
2023/12/10 12:05:32;;;;;;;10.23;2.05;;;13.60;73.90;;;;;;2298827;56;21009;-69
2023/12/10 12:08:00;;;;;;;12.80;2.20;;;13.60;73.80;;;;;;2298440;56;21103;-69
2023/12/10 12:10:38;;;;;;;10.80;1.95;;;13.60;73.70;;;;;;2536947;54;20972;-70
2023/12/10 12:13:05;;;;;;;10.10;2.00;;;13.60;73.40;;;;;;2298054;55;20955;-70
2023/12/10 12:15:33;;;;;;;13.90;2.17;;;13.60;73.80;;;;;;2536551;54;21011;-69
2023/12/10 12:18:03;;;;;;;8.93;2.50;;;13.70;74.00;;;;;;2299060;56;21004;-68
2023/12/10 12:20:32;;;;;;;12.30;2.10;;;13.70;74.00;;;;;;2290759;56;20949;-69
2023/12/10 12:23:00;;;;;;;8.80;1.95;;;13.70;73.90;;;;;;2531670;54;21886;-69
2023/12/10 12:25:26;;;;;;;8.27;1.77;;;13.70;74.00;;;;;;2299210;56;21299;-69
2023/12/10 12:27:54;;;;;;;11.48;2.30;;;13.80;74.20;;;;;;2535529;54;20995;-68
2023/12/10 12:30:21;;;;;;;12.05;2.20;;;13.80;74.10;;;;;;2536161;54;20976;-69
2023/12/10 12:32:48;;;;;;;13.62;1.85;;;13.80;74.00;;;;;;2522855;54;21010;-69
2023/12/10 12:35:14;;;;;;;13.55;2.28;;;13.80;73.90;;;;;;2294133;56;21071;-69
2023/12/10 12:37:40;;;;;;;9.18;1.90;;;13.80;73.90;;;;;;2299144;56;20952;-69
2023/12/10 12:40:07;;;;;;;8.35;1.90;;;13.80;73.90;;;;;;2535190;54;21054;-69
2023/12/10 12:42:34;;;;;;;11.65;2.03;;;14.00;74.20;;;;;;2299464;55;20975;-68